Time;durP1;ratioP1;P1;durP2;ratioP2;P2;SDS_P1;SDS_P2;PMS_P1;PMS_P2;Temp;Humidity;BMP_temperature;BMP_pressure;BME280_temperature;BME280_humidity;BME280_pressure;Samples;Min_cycle;Max_cycle;Signal;HPM_P1;HPM_P2
2022/05/12 00:01:27;;;;;;;7.18;1.98;;;;;;;14.25;70.28;101198.97;4978667;28;20798;-75
2022/05/12 00:03:52;;;;;;;8.70;2.33;;;;;;;14.20;70.24;101212.47;4994902;28;20035;-77
2022/05/12 00:06:18;;;;;;;6.38;2.00;;;;;;;14.17;70.40;101207.50;4984239;28;20101;-75
2022/05/12 00:08:43;;;;;;;4.05;1.40;;;;;;;14.14;70.62;101202.53;4994751;28;20033;-76
2022/05/12 00:11:08;;;;;;;5.70;1.50;;;;;;;14.13;71.11;101207.16;4994437;28;20030;-72
2022/05/12 00:13:34;;;;;;;7.65;1.95;;;;;;;14.10;70.75;101209.50;4994531;28;20035;-73
2022/05/12 00:16:00;;;;;;;8.40;1.60;;;;;;;14.09;70.58;101216.88;4994916;28;20113;-73
2022/05/12 00:18:27;;;;;;;7.45;1.95;;;;;;;14.09;70.76;101216.03;4994200;28;20037;-76
2022/05/12 00:20:53;;;;;;;6.10;1.88;;;;;;;14.09;70.45;101221.50;4993967;28;20476;-71
2022/05/12 00:23:21;;;;;;;4.70;1.77;;;;;;;14.09;70.33;101225.03;4994316;28;20023;-73
2022/05/12 00:25:48;;;;;;;8.70;1.80;;;;;;;14.03;70.97;101227.88;4976312;28;20034;-73
2022/05/12 00:28:17;;;;;;;9.80;2.20;;;;;;;13.98;71.07;101232.16;4994292;28;20522;-76
2022/05/12 00:30:44;;;;;;;6.70;1.90;;;;;;;13.88;71.80;101228.38;4994018;28;20041;-73
2022/05/12 00:33:11;;;;;;;2.88;1.50;;;;;;;13.89;71.60;101228.13;4994276;28;20382;-74
2022/05/12 00:35:36;;;;;;;8.35;1.70;;;;;;;13.84;71.44;101228.00;4994310;28;20057;-73
2022/05/12 00:38:02;;;;;;;4.40;1.30;;;;;;;13.87;71.19;101241.13;5005085;28;20018;-73
2022/05/12 00:40:29;;;;;;;3.58;1.80;;;;;;;13.90;71.46;101246.09;4988023;28;20393;-72
2022/05/12 00:43:06;;;;;;;6.97;1.90;;;;;;;13.81;71.73;101247.53;4975383;28;20039;-73
2022/05/12 00:45:38;;;;;;;7.88;1.73;;;;;;;13.79;72.06;101249.66;4974497;28;20031;-76
2022/05/12 00:48:04;;;;;;;;;;;;;;;13.94;70.11;101247.28;4975192;28;20033;-73
2022/05/12 00:50:38;;;;;;;5.10;1.75;;;;;;;13.81;71.94;101245.66;4990413;28;20003;-75
2022/05/12 00:53:06;;;;;;;5.03;1.63;;;;;;;13.81;71.69;101244.81;4976474;28;20384;-72
2022/05/12 00:55:35;;;;;;;4.03;1.50;;;;;;;13.78;71.76;101253.44;4993243;28;20047;-76
2022/05/12 00:58:05;;;;;;;5.40;1.90;;;;;;;13.70;71.99;101257.34;4994040;28;20054;-76
2022/05/12 01:00:30;;;;;;;7.43;1.80;;;;;;;13.64;72.26;101256.38;4990325;28;20068;-75
2022/05/12 01:03:00;;;;;;;4.07;1.67;;;;;;;13.63;72.47;101256.63;4976393;28;20082;-75
2022/05/12 01:05:27;;;;;;;7.57;2.13;;;;;;;13.58;72.93;101260.03;4977390;28;20081;-73
2022/05/12 01:07:55;;;;;;;5.32;1.70;;;;;;;13.59;72.67;101258.19;4976396;28;20030;-76
2022/05/12 01:10:22;;;;;;;5.22;1.63;;;;;;;13.58;72.88;101260.03;4993779;28;20049;-73
2022/05/12 01:12:49;;;;;;;3.25;1.45;;;;;;;13.61;73.04;101262.28;4993544;28;20378;-76
2022/05/12 01:15:17;;;;;;;4.53;1.65;;;;;;;13.51;73.12;101267.47;4993707;28;20080;-73
2022/05/12 01:17:43;;;;;;;4.85;1.88;;;;;;;13.50;73.23;101267.72;4994073;28;20049;-75
2022/05/12 01:20:09;;;;;;;5.57;2.10;;;;;;;13.49;73.77;101272.34;4993415;28;20030;-74
2022/05/12 01:22:51;;;;;;;7.82;1.95;;;;;;;13.44;73.54;101272.22;4975762;28;20031;-75
2022/05/12 01:25:20;;;;;;;5.75;2.10;;;;;;;13.39;74.43;101274.78;4993245;28;20081;-75
2022/05/12 01:27:45;;;;;;;9.93;2.08;;;;;;;13.29;75.10;101278.88;4993439;28;20073;-73
2022/05/12 01:30:14;;;;;;;11.40;2.28;;;;;;;13.26;75.79;101283.97;4993432;28;20030;-72
2022/05/12 01:32:40;;;;;;;4.57;1.88;;;;;;;13.23;75.82;101287.97;4993049;28;20525;-76
2022/05/12 01:35:06;;;;;;;10.88;2.72;;;;;;;13.21;76.25;101289.25;4992841;28;20117;-75
2022/05/12 01:37:32;;;;;;;10.23;2.30;;;;;;;13.13;76.75;101295.84;4993481;28;20041;-74
2022/05/12 01:39:57;;;;;;;10.98;2.42;;;;;;;13.14;76.95;101296.69;4992114;28;20030;-74
2022/05/12 01:42:23;;;;;;;11.40;2.92;;;;;;;13.03;77.24;101292.84;4993469;28;20390;-74
2022/05/12 01:44:49;;;;;;;11.73;2.70;;;;;;;12.98;77.59;101309.84;4993315;28;20032;-73
2022/05/12 01:47:15;;;;;;;11.27;2.72;;;;;;;12.97;77.59;101312.78;4984854;28;20114;-76
2022/05/12 01:49:41;;;;;;;10.93;2.25;;;;;;;12.91;77.82;101303.69;4973682;28;20042;-73
2022/05/12 01:52:07;;;;;;;9.23;2.58;;;;;;;12.92;77.85;101306.19;4991301;28;20037;-75
2022/05/12 01:54:32;;;;;;;8.50;2.22;;;;;;;12.88;77.60;101307.69;4992724;28;20034;-72
2022/05/12 01:56:58;;;;;;;11.70;2.72;;;;;;;12.93;77.86;101309.72;4979084;28;20121;-73
2022/05/12 01:59:24;;;;;;;8.80;2.70;;;;;;;12.85;77.89;101305.44;4996766;28;20470;-76
2022/05/12 02:01:49;;;;;;;8.35;2.63;;;;;;;12.87;77.79;101319.59;4986485;28;20054;-73
2022/05/12 02:04:16;;;;;;;8.48;2.10;;;;;;;12.85;77.76;101327.16;4976629;28;20035;-75
2022/05/12 02:06:42;;;;;;;11.10;2.70;;;;;;;12.79;78.27;101333.50;4969417;28;20439;-74
2022/05/12 02:09:08;;;;;;;10.57;2.60;;;;;;;12.80;78.43;101334.31;4977597;28;20047;-72
2022/05/12 02:11:34;;;;;;;11.32;2.50;;;;;;;12.84;78.75;101340.97;4977490;28;20031;-73
2022/05/12 02:14:00;;;;;;;7.80;2.30;;;;;;;12.83;77.82;101334.72;4977235;28;20081;-76
2022/05/12 02:16:25;;;;;;;10.85;2.92;;;;;;;12.82;77.91;101333.06;4977589;28;20109;-71
2022/05/12 02:18:52;;;;;;;14.00;2.92;;;;;;;12.79;77.63;101341.66;4960207;28;20130;-76
2022/05/12 02:21:17;;;;;;;9.45;2.88;;;;;;;12.84;77.61;101354.56;4987540;28;20101;-73
2022/05/12 02:23:43;;;;;;;10.63;2.58;;;;;;;12.84;77.48;101351.84;4960754;28;20134;-75
2022/05/12 02:26:09;;;;;;;8.95;2.45;;;;;;;12.76;78.15;101351.06;4978297;28;20022;-74
2022/05/12 02:28:34;;;;;;;9.98;2.30;;;;;;;12.78;78.06;101350.84;4983526;28;20075;-73
2022/05/12 02:30:59;;;;;;;11.15;2.70;;;;;;;12.78;77.51;101348.13;5008752;28;20027;-73
2022/05/12 02:33:25;;;;;;;13.80;3.20;;;;;;;12.80;77.44;101356.06;4997253;28;20031;-76
2022/05/12 02:35:51;;;;;;;11.93;2.72;;;;;;;12.75;78.30;101359.44;4979217;28;20084;-77
2022/05/12 02:38:16;;;;;;;9.63;2.45;;;;;;;12.66;77.52;101366.25;4996980;28;20042;-71
2022/05/12 02:40:41;;;;;;;8.35;2.67;;;;;;;12.59;77.81;101360.88;4996265;28;20034;-73
2022/05/12 02:43:23;;;;;;;7.32;2.80;;;;;;;12.60;78.28;101362.53;4996183;28;20023;-73
2022/05/12 02:45:49;;;;;;;;;;;;;;;12.75;76.09;101367.59;4979670;28;20059;-76
2022/05/12 02:48:14;;;;;;;11.13;2.70;;;;;;;12.50;77.99;101371.22;4976823;28;20144;-77
2022/05/12 02:50:39;;;;;;;12.43;2.88;;;;;;;12.51;78.27;101375.56;4977310;28;20389;-76
2022/05/12 02:53:05;;;;;;;11.20;2.90;;;;;;;12.46;78.60;101375.44;4978559;28;20069;-75
2022/05/12 02:55:30;;;;;;;13.98;2.88;;;;;;;12.44;79.02;101376.69;4978577;28;20026;-74
2022/05/12 02:57:55;;;;;;;10.15;3.20;;;;;;;12.43;78.49;101384.03;4985252;28;20057;-75
2022/05/12 03:00:20;;;;;;;8.80;2.80;;;;;;;12.41;79.18;101372.56;4959633;28;20090;-76
2022/05/12 03:02:46;;;;;;;11.07;3.17;;;;;;;12.43;78.92;101377.78;5008422;28;20162;-75
2022/05/12 03:05:11;;;;;;;12.43;3.05;;;;;;;12.36;78.65;101377.81;4988677;28;20477;-76
2022/05/12 03:07:37;;;;;;;12.65;3.70;;;;;;;12.23;79.09;101376.09;4976569;28;20027;-75
2022/05/12 03:10:03;;;;;;;12.65;3.47;;;;;;;12.27;79.49;101387.31;4976831;28;20035;-75
2022/05/12 03:12:30;;;;;;;8.88;3.10;;;;;;;12.23;79.93;101387.75;4976151;28;20040;-76
2022/05/12 03:14:55;;;;;;;13.45;3.78;;;;;;;12.20;79.92;101393.63;4989144;28;20030;-74
2022/05/12 03:17:20;;;;;;;19.83;5.00;;;;;;;12.17;80.37;101394.06;4978696;28;20046;-73
2022/05/12 03:19:46;;;;;;;12.55;3.70;;;;;;;12.10;80.45;101385.16;4995502;28;20465;-74
2022/05/12 03:22:11;;;;;;;15.60;4.97;;;;;;;12.10;81.24;101395.19;4995312;28;20062;-77
2022/05/12 03:24:38;;;;;;;11.77;4.10;;;;;;;12.04;80.99;101391.47;4995519;28;20046;-77
2022/05/12 03:27:03;;;;;;;12.07;4.15;;;;;;;11.97;81.47;101406.97;4995331;28;20034;-76
2022/05/12 03:29:28;;;;;;;16.08;4.70;;;;;;;11.98;81.53;101397.78;4994372;28;20425;-75
2022/05/12 03:31:54;;;;;;;15.00;4.60;;;;;;;11.96;81.84;101399.91;4995682;28;20070;-72
2022/05/12 03:34:19;;;;;;;15.45;5.00;;;;;;;11.87;82.59;101405.53;4995026;28;20040;-73
2022/05/12 03:36:44;;;;;;;12.52;4.15;;;;;;;11.87;82.38;101402.00;4994750;28;20038;-74
2022/05/12 03:39:10;;;;;;;14.88;4.45;;;;;;;11.83;82.44;101412.44;4984377;28;20093;-76
2022/05/12 03:41:35;;;;;;;16.42;4.90;;;;;;;11.87;82.13;101419.09;4975567;28;20481;-73
2022/05/12 03:46:44;;;;;;;18.45;5.85;;;;;;;11.83;82.90;101417.88;4989137;28;20041;-74
2022/05/12 03:49:09;;;;;;;15.88;5.57;;;;;;;11.78;83.03;101423.13;4972342;28;20042;-75
2022/05/12 03:51:35;;;;;;;15.18;6.03;;;;;;;11.73;83.82;101430.25;4975712;28;20043;-75
2022/05/12 03:54:01;;;;;;;17.13;6.25;;;;;;;11.70;84.19;101424.25;4958418;28;20554;-75
2022/05/12 03:56:26;;;;;;;15.63;6.10;;;;;;;11.68;84.51;101434.47;4982588;28;20109;-73
2022/05/12 03:58:52;;;;;;;19.38;6.70;;;;;;;11.69;84.80;101435.31;4995132;28;20109;-74
2022/05/12 04:01:17;;;;;;;18.27;6.88;;;;;;;11.63;84.95;101444.31;4986158;28;20088;-74
2022/05/12 04:03:45;;;;;;;18.48;6.90;;;;;;;11.61;85.05;101430.13;4975806;28;20371;-72
2022/05/12 04:06:11;;;;;;;20.95;7.40;;;;;;;11.68;85.24;101439.91;4975453;28;20031;-75
2022/05/12 04:08:36;;;;;;;18.42;7.82;;;;;;;11.67;85.83;101446.38;4973826;28;20030;-75
2022/05/12 04:11:02;;;;;;;17.63;7.60;;;;;;;11.62;85.62;101453.47;4983436;28;20142;-73
2022/05/12 04:13:27;;;;;;;23.00;8.82;;;;;;;11.58;85.85;101454.94;4993855;28;20030;-76
2022/05/12 04:15:53;;;;;;;21.60;8.63;;;;;;;11.55;86.39;101458.09;4994640;28;20040;-77
2022/05/12 04:18:19;;;;;;;19.48;8.63;;;;;;;11.50;87.03;101467.72;4994002;28;20033;-75
2022/05/12 04:20:44;;;;;;;27.05;9.63;;;;;;;11.50;87.08;101467.72;4994303;28;20041;-75
2022/05/12 04:23:09;;;;;;;22.98;9.20;;;;;;;11.56;87.29;101462.47;4993711;28;20038;-75
2022/05/12 04:25:35;;;;;;;23.20;9.65;;;;;;;11.59;87.18;101464.75;4958988;28;20054;-74
2022/05/12 04:28:02;;;;;;;21.52;8.80;;;;;;;11.58;87.14;101474.78;4975109;28;20031;-76
2022/05/12 04:30:27;;;;;;;23.08;9.80;;;;;;;11.61;87.07;101484.34;4975277;28;20114;-73
2022/05/12 04:32:53;;;;;;;20.02;9.60;;;;;;;11.68;86.94;101474.28;4975015;28;20062;-73
2022/05/12 04:35:20;;;;;;;25.20;10.02;;;;;;;11.70;87.86;101477.63;4987784;28;20108;-74
2022/05/12 04:37:50;;;;;;;24.80;10.15;;;;;;;11.66;87.98;101482.66;4994251;28;20037;-75
2022/05/12 04:40:27;;;;;;;20.00;9.43;;;;;;;11.74;87.98;101489.69;4992649;28;20034;-73
2022/05/12 04:42:55;;;;;;;23.08;10.10;;;;;;;11.62;88.39;101483.28;4993364;28;20042;-75
2022/05/12 04:45:23;;;;;;;24.77;10.38;;;;;;;11.68;88.30;101502.25;4994364;28;20037;-72
2022/05/12 04:47:48;;;;;;;20.60;9.85;;;;;;;11.75;88.56;101499.50;4993931;28;20030;-72
2022/05/12 04:50:18;;;;;;;24.65;10.68;;;;;;;11.76;88.25;101493.03;4988445;28;20027;-73
2022/05/12 04:52:44;;;;;;;24.30;10.73;;;;;;;11.73;88.72;101496.19;4974742;28;20031;-74
2022/05/12 04:55:10;;;;;;;25.42;11.65;;;;;;;11.73;88.95;101498.91;4979575;28;20041;-77
2022/05/12 04:57:44;;;;;;;24.63;10.95;;;;;;;11.75;89.26;101501.38;4993840;28;20042;-77
2022/05/12 05:00:30;;;;;;;26.75;11.40;;;;;;;11.80;88.67;101494.25;4993823;28;20053;-77
2022/05/12 05:02:56;;;;;;;28.13;12.02;;;;;;;11.82;89.52;101500.31;4973769;28;20046;-73
2022/05/12 05:05:22;;;;;;;28.08;12.90;;;;;;;11.84;89.93;101509.03;4974816;28;20046;-73
2022/05/12 05:07:47;;;;;;;27.50;13.13;;;;;;;11.84;90.03;101511.75;4974739;28;20023;-73
2022/05/12 05:10:13;;;;;;;26.83;12.98;;;;;;;11.91;90.21;101527.16;4964096;28;20041;-74
2022/05/12 05:12:39;;;;;;;31.45;13.88;;;;;;;11.84;90.54;101519.06;4993124;28;20030;-75
2022/05/12 05:15:06;;;;;;;35.35;13.65;;;;;;;11.87;90.76;101530.28;4993509;28;20062;-76
2022/05/12 05:17:31;;;;;;;27.58;13.20;;;;;;;11.92;91.03;101528.81;4976425;28;20046;-76
2022/05/12 05:19:56;;;;;;;24.38;12.85;;;;;;;11.96;90.95;101527.38;4993198;28;20030;-75
2022/05/12 05:22:22;;;;;;;27.92;13.88;;;;;;;11.97;91.31;101526.31;4994052;28;20120;-73
2022/05/12 05:24:47;;;;;;;33.72;15.23;;;;;;;11.94;91.86;101535.72;4993445;28;20376;-74
2022/05/12 05:27:12;;;;;;;30.45;14.73;;;;;;;11.97;92.13;101543.44;4987644;28;20038;-76
2022/05/12 05:29:41;;;;;;;29.30;15.30;;;;;;;11.97;92.47;101532.59;5011160;28;20462;-77
2022/05/12 05:32:09;;;;;;;29.42;14.93;;;;;;;12.08;92.37;101547.34;4995973;28;20037;-74
2022/05/12 05:34:34;;;;;;;31.77;15.50;;;;;;;12.16;91.80;101548.94;4994592;28;20034;-76
2022/05/12 05:37:00;;;;;;;32.80;15.30;;;;;;;12.19;91.96;101551.22;4993655;28;20488;-74
2022/05/12 05:39:27;;;;;;;35.65;16.45;;;;;;;12.25;92.09;101565.81;4984521;28;20034;-75
2022/05/12 05:42:02;;;;;;;35.90;16.17;;;;;;;12.27;92.66;101564.53;5016717;28;20038;-72
2022/05/12 05:44:32;;;;;;;32.03;15.93;;;;;;;12.33;92.32;101573.69;5001350;28;20022;-73
2022/05/12 05:46:58;;;;;;;28.83;15.88;;;;;;;12.38;92.37;101576.59;4994028;28;20074;-72
2022/05/12 05:49:23;;;;;;;34.50;16.70;;;;;;;12.43;92.50;101581.34;4993121;28;20034;-73
2022/05/12 05:54:34;;;;;;;37.60;17.38;;;;;;;12.52;92.73;101590.88;4992766;28;20037;-76
2022/05/12 05:57:00;;;;;;;35.30;18.10;;;;;;;12.54;92.12;101591.50;4992868;28;20034;-73
2022/05/12 05:59:25;;;;;;;36.75;18.00;;;;;;;12.61;92.39;101597.72;4993311;28;20038;-71
2022/05/12 06:01:50;;;;;;;27.73;16.90;;;;;;;12.62;92.46;101606.69;4987816;28;20055;-73
2022/05/12 06:04:17;;;;;;;30.33;17.67;;;;;;;12.66;92.63;101613.34;4975098;28;20049;-74
2022/05/12 06:06:44;;;;;;;36.17;19.02;;;;;;;12.71;92.56;101608.91;4992508;28;20553;-76
2022/05/12 06:09:10;;;;;;;39.40;19.60;;;;;;;12.77;91.82;101607.19;4998075;28;20041;-71
2022/05/12 06:11:35;;;;;;;33.47;18.80;;;;;;;12.80;92.09;101611.34;4995447;28;20034;-72
2022/05/12 06:14:00;;;;;;;29.35;18.20;;;;;;;12.85;92.19;101612.34;4998730;28;20038;-73
2022/05/12 06:16:25;;;;;;;32.40;17.70;;;;;;;12.89;91.67;101615.44;4993253;28;20121;-73
2022/05/12 06:18:51;;;;;;;33.25;18.05;;;;;;;12.92;92.19;101615.00;4991187;28;20034;-74
2022/05/12 06:21:17;;;;;;;32.83;18.60;;;;;;;12.94;92.15;101623.78;4968799;28;20063;-72
2022/05/12 06:23:43;;;;;;;35.85;18.27;;;;;;;13.00;92.01;101622.03;4972646;28;20436;-75
2022/05/12 06:26:13;;;;;;;37.95;19.10;;;;;;;13.04;92.02;101618.66;4982406;28;20136;-73
2022/05/12 06:28:45;;;;;;;30.50;18.08;;;;;;;13.07;91.97;101630.97;4992367;28;20030;-74
2022/05/12 06:31:15;;;;;;;31.23;18.67;;;;;;;13.11;92.24;101632.19;4975805;28;20058;-72
2022/05/12 06:33:41;;;;;;;33.67;18.45;;;;;;;13.17;91.43;101636.75;4972634;28;20110;-74
2022/05/12 06:36:08;;;;;;;30.67;18.88;;;;;;;13.21;91.16;101634.41;4973188;28;20142;-73
2022/05/12 06:38:34;;;;;;;28.98;17.90;;;;;;;13.30;90.58;101639.34;4973190;28;20027;-73
2022/05/12 06:41:00;;;;;;;27.02;17.98;;;;;;;13.35;89.99;101632.44;4971880;28;20065;-73
2022/05/12 06:43:26;;;;;;;32.83;17.75;;;;;;;13.41;89.27;101645.13;4976724;28;20067;-74
2022/05/12 06:45:55;;;;;;;33.90;17.90;;;;;;;13.36;88.13;101648.53;4976223;28;20062;-73
2022/05/12 06:48:21;;;;;;;29.15;17.92;;;;;;;13.26;88.14;101654.41;4976756;28;20026;-73
2022/05/12 06:50:47;;;;;;;26.55;17.58;;;;;;;13.26;88.72;101659.84;4983878;28;20034;-73
2022/05/12 06:53:13;;;;;;;27.75;16.90;;;;;;;13.26;87.93;101659.03;4978564;28;20041;-72
2022/05/12 06:55:38;;;;;;;24.95;16.88;;;;;;;13.23;88.25;101662.19;4976028;28;20027;-76
2022/05/12 06:58:03;;;;;;;27.13;17.00;;;;;;;13.25;87.43;101663.63;4976096;28;20027;-75
2022/05/12 07:00:29;;;;;;;26.48;16.42;;;;;;;13.25;87.27;101663.63;4974933;28;20030;-76
2022/05/12 07:02:55;;;;;;;26.33;17.27;;;;;;;13.23;86.26;101663.03;4972438;28;20053;-76
2022/05/12 07:05:23;;;;;;;25.98;17.52;;;;;;;13.18;86.49;101667.44;4996038;28;20064;-75
2022/05/12 07:07:49;;;;;;;25.02;16.38;;;;;;;13.27;85.51;101666.13;4995610;28;20030;-77
2022/05/12 07:10:16;;;;;;;24.80;15.35;;;;;;;13.40;85.21;101670.63;4994547;28;20477;-73
2022/05/12 07:12:41;;;;;;;22.55;15.77;;;;;;;13.54;84.71;101671.34;4995665;28;20038;-76
2022/05/12 07:15:08;;;;;;;26.30;16.63;;;;;;;13.67;84.56;101679.38;4994109;28;20123;-74
2022/05/12 07:17:37;;;;;;;26.13;16.60;;;;;;;13.75;83.37;101670.06;4988470;28;20039;-74
2022/05/12 07:28:19;;;;;;;24.27;15.32;;;;;;;14.23;80.25;101677.44;4961270;28;20109;-75
2022/05/12 07:31:03;;;;;;;22.17;14.85;;;;;;;14.26;79.66;101687.06;4975328;28;20140;-76
2022/05/12 07:33:43;;;;;;;23.42;13.20;;;;;;;14.20;78.91;101686.06;4975994;28;20031;-75
2022/05/12 07:36:16;;;;;;;22.15;14.10;;;;;;;14.06;79.28;101690.03;4975437;28;20058;-74
2022/05/12 07:38:42;;;;;;;25.63;14.57;;;;;;;14.07;79.72;101688.97;4975403;28;20383;-76
2022/05/12 07:41:11;;;;;;;24.60;13.48;;;;;;;14.09;79.44;101700.47;4975747;28;20526;-73
2022/05/12 07:43:38;;;;;;;17.67;10.50;;;;;;;14.09;76.32;101701.28;4959397;28;20094;-74
2022/05/12 07:46:04;;;;;;;16.77;10.93;;;;;;;14.00;75.56;101697.22;4975625;28;20317;-74
2022/05/12 07:48:29;;;;;;;16.70;10.60;;;;;;;14.09;76.80;101693.13;4975979;28;20356;-72
2022/05/12 07:50:54;;;;;;;16.73;11.05;;;;;;;14.24;75.30;101692.75;4975490;28;20030;-75
2022/05/12 07:53:20;;;;;;;21.48;11.35;;;;;;;14.43;74.72;101701.72;4974918;28;20039;-72
2022/05/12 07:55:45;;;;;;;18.15;10.98;;;;;;;14.60;74.66;101701.03;4975909;28;20125;-76
2022/05/12 07:58:11;;;;;;;18.58;11.15;;;;;;;14.71;70.40;101703.84;4993180;28;20027;-73
2022/05/12 08:00:37;;;;;;;20.70;10.75;;;;;;;14.71;71.27;101709.28;4988757;28;20035;-75
2022/05/12 08:03:03;;;;;;;20.02;11.27;;;;;;;14.70;70.88;101696.75;4992520;28;20133;-75
2022/05/12 08:05:29;;;;;;;22.67;12.43;;;;;;;14.86;71.60;101711.59;4995173;28;20113;-75
2022/05/12 08:07:55;;;;;;;20.45;10.23;;;;;;;14.98;69.00;101714.34;4989527;28;20051;-76
2022/05/12 08:10:20;;;;;;;15.73;9.10;;;;;;;14.99;65.72;101718.75;4983497;28;20035;-73
2022/05/12 08:12:46;;;;;;;17.23;10.02;;;;;;;14.99;66.55;101710.56;4994068;28;20038;-74
2022/05/12 08:15:12;;;;;;;20.75;10.50;;;;;;;15.01;66.09;101719.34;4994482;28;20034;-73
2022/05/12 08:17:37;;;;;;;19.40;9.98;;;;;;;15.07;67.48;101718.41;4994264;28;20522;-75
2022/05/12 08:20:09;;;;;;;18.73;10.05;;;;;;;15.20;66.71;101721.97;4994442;28;20129;-74
2022/05/12 08:22:34;;;;;;;18.08;9.60;;;;;;;15.29;64.07;101723.28;4994504;28;20034;-75
2022/05/12 08:25:00;;;;;;;17.75;10.43;;;;;;;15.22;63.91;101719.88;4993965;28;20739;-74
2022/05/12 08:27:26;;;;;;;15.00;10.05;;;;;;;15.36;65.17;101718.56;4994645;28;20034;-76
2022/05/12 08:29:52;;;;;;;17.33;9.93;;;;;;;15.48;64.92;101720.47;4992252;28;20104;-74
2022/05/12 08:32:17;;;;;;;11.60;6.40;;;;;;;15.44;61.81;101722.00;4994171;28;20470;-72
2022/05/12 08:34:43;;;;;;;12.63;6.78;;;;;;;15.36;61.11;101721.28;4993864;28;20030;-74
2022/05/12 08:37:10;;;;;;;13.45;6.20;;;;;;;15.35;60.60;101714.19;4994401;28;20054;-71
2022/05/12 08:39:36;;;;;;;14.18;6.72;;;;;;;15.41;60.42;101715.97;4993064;28;20042;-73
2022/05/12 08:42:22;;;;;;;16.63;7.82;;;;;;;15.58;61.56;101715.28;4993909;28;20081;-73
2022/05/12 08:44:47;;;;;;;15.07;8.23;;;;;;;15.76;60.58;101708.84;4994116;28;20385;-76
2022/05/12 08:47:16;;;;;;;16.13;6.10;;;;;;;15.65;60.04;101715.97;4976493;28;20029;-72
2022/05/12 08:49:50;;;;;;;11.30;5.43;;;;;;;15.67;60.69;101724.75;4995655;28;20018;-72
2022/05/12 08:52:21;;;;;;;11.20;5.03;;;;;;;15.58;56.84;101726.19;4987190;28;20104;-74
2022/05/12 08:55:09;;;;;;;8.25;4.45;;;;;;;15.58;55.74;101720.72;4959792;28;20042;-74
2022/05/12 08:57:55;;;;;;;11.93;4.00;;;;;;;15.63;55.75;101726.28;4974883;28;20027;-75
2022/05/12 09:00:22;;;;;;;13.45;6.40;;;;;;;15.65;57.25;101734.25;4973688;28;20053;-73
2022/05/12 09:02:57;;;;;;;13.75;6.30;;;;;;;15.60;56.11;101732.22;4987736;28;20042;-75
2022/05/12 09:05:28;;;;;;;12.60;5.03;;;;;;;15.63;56.60;101731.75;4993062;28;20502;-76
2022/05/12 09:08:04;;;;;;;9.98;6.15;;;;;;;15.61;56.96;101736.63;4993737;28;20474;-73
2022/05/12 09:10:59;;;;;;;10.02;5.80;;;;;;;15.62;58.24;101742.91;4993577;28;20045;-75
2022/05/12 09:13:30;;;;;;;14.38;6.22;;;;;;;15.63;58.19;101731.75;4993764;28;20033;-75
2022/05/12 09:16:05;;;;;;;;;;;;;;;15.84;55.37;101729.53;4991750;28;20496;-74
2022/05/12 09:18:34;;;;;;;10.68;5.80;;;;;;;15.93;55.36;101731.63;4992439;28;19918;-75
2022/05/12 09:21:03;;;;;;;12.38;6.40;;;;;;;16.16;54.86;101734.56;4993249;28;20084;-71
2022/05/12 09:23:28;;;;;;;9.30;5.45;;;;;;;16.26;53.81;101732.88;4959784;28;20042;-73
2022/05/12 09:25:54;;;;;;;9.95;5.47;;;;;;;16.25;54.43;101738.59;4993237;28;20022;-73
2022/05/12 09:28:33;;;;;;;13.75;6.38;;;;;;;16.11;54.51;101733.38;4993432;28;20466;-74
2022/05/12 09:31:02;;;;;;;9.93;6.43;;;;;;;16.00;54.82;101731.50;4993178;28;20084;-75
2022/05/12 09:33:35;;;;;;;11.38;5.47;;;;;;;15.86;52.90;101741.03;4993520;28;20423;-72
2022/05/12 09:36:05;;;;;;;12.95;6.32;;;;;;;15.84;54.73;101737.72;4991329;28;20141;-72
2022/05/12 09:38:39;;;;;;;13.50;6.00;;;;;;;15.80;55.07;101731.06;4993398;28;20038;-74
2022/05/12 09:41:15;;;;;;;12.30;5.40;;;;;;;15.92;53.30;101731.88;4991443;28;20022;-74
2022/05/12 09:43:40;;;;;;;10.85;5.47;;;;;;;15.91;51.83;101722.88;4992984;28;20037;-73
2022/05/12 09:46:18;;;;;;;10.98;5.15;;;;;;;16.09;52.53;101730.09;4993363;28;20035;-74
2022/05/12 09:48:45;;;;;;;12.23;5.82;;;;;;;16.32;53.20;101728.38;5002813;28;20038;-72
2022/05/12 09:51:21;;;;;;;14.85;5.75;;;;;;;16.46;52.33;101724.25;4991094;28;20042;-73
2022/05/12 09:53:47;;;;;;;10.55;5.13;;;;;;;16.57;50.65;101724.47;4993361;28;20041;-74
2022/05/12 09:56:32;;;;;;;10.07;3.40;;;;;;;16.62;49.66;101722.66;4993324;28;20041;-76
2022/05/12 09:59:23;;;;;;;8.68;3.97;;;;;;;16.53;50.11;101723.28;4977255;28;20035;-75
2022/05/12 10:02:02;;;;;;;6.43;3.50;;;;;;;16.54;49.78;101717.56;4968539;28;20050;-75
2022/05/12 10:10:23;;;;;;;8.60;3.28;;;;;;;16.78;48.52;101722.94;4993194;28;20037;-72
2022/05/12 10:12:58;;;;;;;5.85;2.03;;;;;;;16.72;45.61;101724.75;4992586;28;20038;-74
2022/05/12 10:15:30;;;;;;;5.53;2.40;;;;;;;16.70;46.23;101732.38;4992579;28;20117;-76
2022/05/12 10:18:04;;;;;;;8.55;3.22;;;;;;;16.61;48.06;101728.38;4988586;28;20389;-77
2022/05/12 10:20:32;;;;;;;9.60;4.00;;;;;;;16.56;48.79;101729.13;5005458;28;20042;-72
2022/05/12 10:23:00;;;;;;;9.32;4.30;;;;;;;16.58;50.01;101729.69;5005696;28;20017;-73
2022/05/12 10:25:57;;;;;;;8.02;3.78;;;;;;;16.65;49.34;101730.38;5012521;28;20042;-74
2022/05/12 10:28:28;;;;;;;9.00;3.53;;;;;;;16.63;47.65;101728.94;4997444;28;20026;-72
2022/05/12 10:30:59;;;;;;;11.35;3.40;;;;;;;16.54;47.16;101735.88;4995832;28;20031;-75
2022/05/12 10:34:27;;;;;;;7.78;3.83;;;;;;;16.57;48.60;101729.94;4994414;28;20421;-75
2022/05/12 10:37:18;;;;;;;8.45;4.47;;;;;;;16.72;48.61;101735.69;4898008;29;20766;-76
2022/05/12 10:39:54;;;;;;;9.73;3.95;;;;;;;16.75;47.52;101732.47;4898392;29;20048;-72
2022/05/12 10:42:36;;;;;;;7.10;3.00;;;;;;;16.82;47.38;101730.41;4983854;28;20394;-71
2022/05/12 10:45:37;;;;;;;10.60;2.90;;;;;;;16.92;48.64;101720.75;4996184;28;20492;-74
2022/05/12 10:48:15;;;;;;;8.82;3.00;;;;;;;16.95;47.41;101720.25;4996120;28;20041;-74
2022/05/12 10:51:02;;;;;;;7.57;3.10;;;;;;;16.96;47.84;101720.03;4979006;28;20041;-74
2022/05/12 10:53:32;;;;;;;9.20;3.10;;;;;;;17.15;48.95;101715.16;4995598;28;20177;-76
2022/05/12 10:56:03;;;;;;;16.38;4.15;;;;;;;17.26;46.44;101718.06;4978461;28;20034;-74
2022/05/12 10:58:43;;;;;;;6.18;3.08;;;;;;;17.26;45.09;101726.28;4996411;28;20030;-75
2022/05/12 11:01:27;;;;;;;9.07;3.20;;;;;;;17.26;45.83;101726.28;4988419;28;20050;-73
2022/05/12 11:04:00;;;;;;;13.07;3.20;;;;;;;17.20;45.89;101722.63;4975809;28;20513;-73
2022/05/12 11:06:39;;;;;;;11.40;3.85;;;;;;;17.34;47.27;101723.09;4975523;28;20458;-73
2022/05/12 11:09:10;;;;;;;6.53;3.55;;;;;;;17.48;46.59;101713.50;4976189;28;20551;-75
2022/05/12 11:11:49;;;;;;;9.02;3.92;;;;;;;17.69;45.99;101711.03;4977010;28;20466;-75
2022/05/12 11:14:33;;;;;;;9.07;3.38;;;;;;;17.58;43.86;101714.72;4976361;28;20359;-76
2022/05/12 11:17:24;;;;;;;7.63;2.85;;;;;;;17.45;44.99;101708.53;4977288;28;20057;-75
2022/05/12 11:19:59;;;;;;;6.80;3.00;;;;;;;17.49;43.78;101715.13;4959027;28;20041;-75
2022/05/12 11:22:34;;;;;;;6.72;3.60;;;;;;;17.42;44.52;101711.75;4976388;28;20026;-72
2022/05/12 11:25:13;;;;;;;8.30;3.40;;;;;;;17.62;44.00;101710.38;4959053;28;20035;-73
2022/05/12 11:31:08;;;;;;;9.07;4.07;;;;;;;17.77;44.72;101705.16;4976243;28;20406;-74
2022/05/12 11:33:36;;;;;;;6.25;3.47;;;;;;;17.65;42.42;101707.16;4976349;28;20360;-75
2022/05/12 11:36:02;;;;;;;8.38;3.10;;;;;;;17.67;42.09;101694.06;4977123;28;20046;-73
2022/05/12 11:38:37;;;;;;;14.35;3.33;;;;;;;17.95;43.72;101697.72;4995806;28;20097;-73
2022/05/12 11:41:04;;;;;;;12.07;3.35;;;;;;;18.06;42.91;101691.31;4995419;28;20064;-75
2022/05/12 11:46:22;;;;;;;7.90;2.67;;;;;;;18.12;41.85;101692.22;4981624;28;20136;-73
2022/05/12 11:49:11;;;;;;;11.20;2.43;;;;;;;17.95;41.78;101698.56;4995368;28;20054;-75
2022/05/12 11:51:55;;;;;;;9.35;2.70;;;;;;;17.93;42.50;101697.16;4958608;28;20046;-76